Time;durP1;ratioP1;P1;durP2;ratioP2;P2;SDS_P1;SDS_P2;PMS_P1;PMS_P2;Temp;Humidity;BMP_temperature;BMP_pressure;BME280_temperature;BME280_humidity;BME280_pressure;Samples;Min_cycle;Max_cycle;Signal;HPM_P1;HPM_P2
2022/08/02 00:00:16;;;;;;;3.60;2.90;;;;;;;20.21;56.74;99940.36;117097;1186;23454;-57
2022/08/02 00:02:43;;;;;;;3.10;2.70;;;;;;;20.24;56.71;99943.93;117003;1189;22934;-58
2022/08/02 00:05:11;;;;;;;4.00;3.10;;;;;;;20.26;56.65;99943.98;117105;1186;23045;-66
2022/08/02 03:59:26;;;;;;;8.90;7.90;;;;;;;20.53;59.45;99989.98;117230;1186;21854;-66
2022/08/02 04:01:58;;;;;;;9.40;8.50;;;;;;;20.62;59.37;99992.65;117170;1188;21854;-65
2022/08/02 04:04:29;;;;;;;10.10;8.10;;;;;;;20.70;59.47;99992.31;117137;1188;22987;-57
2022/08/02 04:06:55;;;;;;;9.30;8.20;;;;;;;20.80;59.38;99991.43;117141;1189;24172;-57
2022/08/02 04:09:23;;;;;;;14.80;12.90;;;;;;;20.89;59.50;99984.25;117197;1188;22928;-57
2022/08/02 04:11:50;;;;;;;14.20;12.60;;;;;;;20.99;59.70;99972.05;117253;1186;23561;-65
2022/08/02 04:14:18;;;;;;;10.80;9.80;;;;;;;21.09;59.72;99964.43;117265;1186;22925;-65
2022/08/02 04:16:49;;;;;;;10.10;9.10;;;;;;;21.21;59.81;99961.77;117189;1183;22943;-66
2022/08/02 04:19:20;;;;;;;;;;;;;;;21.31;59.85;99961.48;117223;1188;23531;-66
2022/08/02 04:21:47;;;;;;;9.00;8.00;;;;;;;21.41;60.13;99961.92;117147;1184;22934;-57
2022/08/02 04:24:30;;;;;;;13.60;8.30;;;;;;;21.49;59.77;99963.35;117089;1186;22751;-64
2022/08/02 04:27:00;;;;;;;18.00;7.70;;;;;;;21.67;59.34;99967.80;117194;1188;21862;-64
2022/08/02 04:29:47;;;;;;;11.10;8.20;;;;;;;21.92;59.47;99961.90;117311;1182;23595;-64
2022/08/02 04:32:17;;;;;;;13.70;8.80;;;;;;;22.17;59.43;99958.98;117069;1188;22646;-64
2022/08/02 04:34:44;;;;;;;13.10;8.60;;;;;;;22.36;59.48;99955.55;117012;1186;21857;-57
2022/08/02 04:37:31;;;;;;;10.30;8.90;;;;;;;22.55;59.40;99954.05;117053;1188;23066;-63
2022/08/02 04:39:58;;;;;;;10.30;8.80;;;;;;;22.69;59.49;99958.48;117173;1183;24164;-57
2022/08/02 04:42:25;;;;;;;10.50;9.40;;;;;;;22.75;59.53;99961.98;116870;1186;21857;-65
2022/08/02 04:44:52;;;;;;;9.80;8.80;;;;;;;22.81;59.53;99961.02;117130;1186;22918;-58
2022/08/02 04:47:19;;;;;;;9.80;8.80;;;;;;;22.89;59.62;99959.63;117197;1182;24162;-64
2022/08/02 04:50:07;;;;;;;9.50;8.60;;;;;;;22.95;59.33;99957.73;117154;1186;23344;-64
2022/08/02 04:52:34;;;;;;;10.20;9.10;;;;;;;22.96;59.39;99960.71;117251;1186;23533;-57
2022/08/02 04:55:01;;;;;;;9.80;8.90;;;;;;;23.00;59.16;99964.56;117106;1183;23526;-58
2022/08/02 05:00:18;;;;;;;9.40;8.50;;;;;;;23.14;59.31;99962.85;116943;1191;22927;-64
2022/08/02 05:02:46;;;;;;;9.30;8.40;;;;;;;23.23;59.03;99964.59;117020;1189;21872;-64
2022/08/02 05:05:13;;;;;;;13.50;9.50;;;;;;;23.29;59.29;99962.53;117204;1186;23445;-57
2022/08/02 05:07:40;;;;;;;12.20;8.60;;;;;;;23.38;59.09;99963.50;117222;1187;22917;-58
2022/08/02 05:10:07;;;;;;;9.50;8.60;;;;;;;23.47;59.20;99966.58;117149;1184;21903;-64
2022/08/02 05:12:36;;;;;;;10.90;9.50;;;;;;;23.63;59.16;99966.18;117243;1185;23471;-64
2022/08/02 05:15:04;;;;;;;9.70;8.70;;;;;;;23.80;58.96;99965.10;117174;1188;21947;-58
2022/08/02 05:17:31;;;;;;;10.00;8.80;;;;;;;23.94;58.99;99965.81;117105;1184;22934;-58
2022/08/02 05:19:58;;;;;;;9.90;8.80;;;;;;;24.08;58.74;99969.70;116988;1188;23577;-62
2022/08/02 05:22:25;;;;;;;12.50;9.00;;;;;;;24.18;58.75;99973.57;117024;1188;22845;-58
2022/08/02 05:24:52;;;;;;;9.00;8.20;;;;;;;24.29;58.68;99975.79;116962;1188;21866;-64
2022/08/02 05:27:19;;;;;;;10.20;9.20;;;;;;;24.40;58.76;99978.39;117008;1186;23452;-65
2022/08/02 05:29:50;;;;;;;11.40;8.90;;;;;;;24.52;58.65;99976.54;117168;1187;22937;-57
2022/08/02 05:32:19;;;;;;;9.50;8.30;;;;;;;24.64;58.29;99981.70;117145;1187;21887;-64
2022/08/02 05:34:51;;;;;;;9.10;8.20;;;;;;;24.74;58.26;99986.02;117172;1188;21865;-64
2022/08/02 05:37:18;;;;;;;9.10;8.20;;;;;;;24.82;58.19;99987.86;117215;1189;23540;-59
2022/08/02 05:39:45;;;;;;;11.50;8.10;;;;;;;24.94;57.91;99991.65;117003;1186;21891;-64
2022/08/02 05:42:22;;;;;;;16.20;8.50;;;;;;;25.07;57.79;99992.98;116989;1188;22930;-64
2022/08/02 05:44:49;;;;;;;13.20;9.10;;;;;;;25.22;57.78;99992.32;117225;1186;21974;-65
2022/08/02 05:47:16;;;;;;;7.90;7.20;;;;;;;25.36;57.46;99994.73;117128;1185;24151;-58
2022/08/02 05:49:43;;;;;;;9.00;8.10;;;;;;;25.38;57.74;99995.84;117056;1186;22944;-59
2022/08/02 05:52:17;;;;;;;8.80;7.80;;;;;;;25.53;57.60;99994.48;117138;1186;21871;-64
2022/08/02 05:54:57;;;;;;;9.30;7.50;;;;;;;25.78;57.48;99991.41;117099;1186;23475;-58
2022/08/02 05:57:54;;;;;;;9.80;7.50;;;;;;;26.02;56.69;99990.01;117245;1185;21919;-59
2022/08/02 06:00:21;;;;;;;9.50;8.00;;;;;;;26.07;56.79;99995.31;117064;1186;24157;-65
2022/08/02 06:03:00;;;;;;;8.60;7.50;;;;;;;26.21;56.59;99993.11;117004;1186;21861;-59
2022/08/02 06:05:29;;;;;;;8.50;7.60;;;;;;;26.35;56.38;99993.19;117064;1188;24209;-59
2022/08/02 06:07:56;;;;;;;8.50;7.20;;;;;;;26.48;56.19;99995.15;117077;1188;21858;-59
2022/08/02 06:10:23;;;;;;;8.30;7.40;;;;;;;26.58;55.90;99995.95;117100;1186;22819;-59
2022/08/02 06:13:15;;;;;;;8.00;7.20;;;;;;;26.68;55.88;99994.30;116948;1188;23550;-64
2022/08/02 06:15:42;;;;;;;9.10;8.20;;;;;;;26.83;55.67;99995.08;116995;1188;23910;-65
2022/08/02 06:18:20;;;;;;;9.70;7.90;;;;;;;27.00;55.53;99998.08;116949;1189;22921;-59
2022/08/02 06:20:59;;;;;;;9.20;8.10;;;;;;;27.13;55.32;99997.35;117008;1188;23506;-64
2022/08/02 06:23:47;;;;;;;9.70;7.30;;;;;;;27.31;55.27;99993.09;117118;1185;23651;-65
2022/08/02 06:26:28;;;;;;;8.60;7.00;;;;;;;27.49;55.20;99988.19;117099;1190;21864;-60
2022/08/02 06:28:56;;;;;;;;;;;;;;;27.67;54.82;99987.34;117163;1185;23574;-58
2022/08/02 06:31:23;;;;;;;8.20;6.80;;;;;;;27.93;54.05;99990.20;116987;1186;22928;-65
2022/08/02 06:33:50;;;;;;;7.20;6.40;;;;;;;27.99;53.84;99990.90;117112;1182;23475;-65
2022/08/02 06:36:20;;;;;;;7.10;6.40;;;;;;;28.15;54.36;99984.29;117127;1183;23554;-59
2022/08/02 06:39:13;;;;;;;6.70;5.50;;;;;;;28.55;54.89;99981.09;117214;1186;21854;-59
2022/08/02 06:41:41;;;;;;;6.90;6.00;;;;;;;28.83;54.28;99974.38;117150;1187;23809;-65
2022/08/02 06:44:08;;;;;;;11.30;6.20;;;;;;;29.01;54.95;99971.89;117014;1188;21870;-65
2022/08/02 06:46:55;;;;;;;9.10;6.20;;;;;;;29.36;54.74;99972.36;116850;1188;21858;-59
2022/08/02 06:49:41;;;;;;;7.50;6.00;;;;;;;29.69;55.35;99968.88;117051;1189;21885;-59
2022/08/02 06:52:24;;;;;;;6.00;5.40;;;;;;;30.05;55.63;99967.68;117142;1188;21861;-60
2022/08/02 06:54:56;;;;;;;13.40;5.80;;;;;;;30.20;55.13;99966.98;117079;1188;22935;-62
2022/08/02 06:57:23;;;;;;;8.20;5.80;;;;;;;30.39;54.77;99969.70;117318;1185;21851;-62
2022/08/02 06:59:51;;;;;;;7.00;5.60;;;;;;;30.59;54.59;99969.36;117181;1186;21898;-66
2022/08/02 07:02:18;;;;;;;7.50;6.30;;;;;;;30.74;53.99;99966.10;117157;1188;23576;-62
2022/08/02 07:04:45;;;;;;;343.40;53.30;;;;;;;30.79;53.97;99969.22;117101;1188;21855;-63
2022/08/02 07:07:12;;;;;;;99.80;19.80;;;;;;;30.96;54.78;99970.21;117073;1188;23710;-62
2022/08/02 07:09:39;;;;;;;43.50;11.30;;;;;;;31.24;54.17;99969.69;117056;1186;22647;-63
2022/08/02 07:12:26;;;;;;;44.40;11.30;;;;;;;31.50;54.41;99970.20;117108;1186;23507;-62
2022/08/02 07:14:53;;;;;;;48.70;13.30;;;;;;;31.67;54.49;99972.14;117059;1186;22619;-63
2022/08/02 07:17:20;;;;;;;41.50;10.80;;;;;;;31.81;53.74;99976.85;117199;1188;21853;-63
2022/08/02 07:19:47;;;;;;;28.30;9.30;;;;;;;31.98;54.21;99978.30;117124;1189;21859;-63
2022/08/02 07:22:14;;;;;;;20.80;9.40;;;;;;;32.08;53.55;99979.48;117138;1186;23552;-65
2022/08/02 07:24:41;;;;;;;45.30;12.80;;;;;;;32.14;53.20;99981.27;117234;1188;22950;-65
2022/08/02 07:27:08;;;;;;;12.80;7.60;;;;;;;32.26;51.57;99984.84;117146;1189;23596;-64
2022/08/02 07:29:38;;;;;;;10.70;6.70;;;;;;;32.37;51.69;99983.80;117209;1182;23471;-65
2022/08/02 07:32:16;;;;;;;16.30;8.10;;;;;;;32.40;52.01;99983.16;117154;1188;23585;-61
2022/08/02 07:34:44;;;;;;;10.80;6.00;;;;;;;32.25;52.08;99985.66;117211;1188;21854;-61
2022/08/02 07:37:20;;;;;;;9.70;5.80;;;;;;;32.05;52.26;99984.15;117143;1184;21871;-66
2022/08/02 07:40:09;;;;;;;9.50;5.80;;;;;;;32.06;51.93;99981.48;117140;1186;22809;-66
2022/08/02 07:42:59;;;;;;;6.80;5.40;;;;;;;31.99;48.88;99982.31;117127;1186;21857;-59
2022/08/02 07:45:31;;;;;;;99.20;13.50;;;;;;;31.79;50.38;99984.42;117081;1188;22084;-59
2022/08/02 07:48:01;;;;;;;10.30;6.20;;;;;;;31.67;51.65;99982.60;117134;1186;22872;-65
2022/08/02 07:50:28;;;;;;;120.50;14.00;;;;;;;31.69;52.00;99982.45;117020;1186;23582;-65
2022/08/02 07:52:55;;;;;;;60.20;10.40;;;;;;;31.91;52.64;99980.10;117159;1187;22725;-68
2022/08/02 07:55:24;;;;;;;9.10;5.60;;;;;;;32.05;51.01;99978.77;117118;1187;24003;-61
2022/08/02 07:58:10;;;;;;;6.90;5.00;;;;;;;32.00;50.51;99977.95;117172;1186;22616;-60
2022/08/02 08:00:40;;;;;;;8.00;5.70;;;;;;;32.02;50.86;99975.95;119214;1186;22508;-61
2022/08/02 08:03:08;;;;;;;8.50;5.80;;;;;;;32.22;50.91;99976.20;117164;1186;21878;-65
2022/08/02 08:05:35;;;;;;;7.10;4.80;;;;;;;32.33;50.07;99976.48;117523;1187;21794;-60
2022/08/02 08:08:04;;;;;;;8.10;5.10;;;;;;;32.49;50.46;99975.96;119077;1187;21858;-60
2022/08/02 08:10:31;;;;;;;9.20;4.90;;;;;;;32.57;50.01;99970.92;118532;1186;21867;-66
2022/08/02 08:12:58;;;;;;;6.70;4.50;;;;;;;32.51;49.76;99977.88;117124;1189;23557;-66
2022/08/02 08:15:25;;;;;;;4.50;4.00;;;;;;;32.44;49.53;99979.08;117028;1188;22957;-61
2022/08/02 08:17:52;;;;;;;9.20;4.50;;;;;;;32.48;49.86;99976.01;117014;1185;23557;-66
2022/08/02 08:20:19;;;;;;;7.20;3.40;;;;;;;32.64;50.11;99976.98;116929;1188;23270;-61
2022/08/02 08:22:46;;;;;;;9.80;8.50;;;;;;;32.99;50.29;99970.94;117047;1186;22899;-60
2022/08/02 08:25:14;;;;;;;9.60;7.80;;;;;;;33.47;49.81;99963.59;117055;1185;23606;-60
2022/08/02 08:27:51;;;;;;;5.50;4.80;;;;;;;33.65;47.60;99965.52;116975;1188;24192;-66
2022/08/02 08:30:21;;;;;;;5.90;3.60;;;;;;;33.67;48.54;99970.45;116916;1189;23210;-66
2022/08/02 08:32:48;;;;;;;4.10;3.70;;;;;;;33.79;47.22;99966.27;116959;1187;21847;-66
2022/08/02 08:35:15;;;;;;;4.60;4.00;;;;;;;33.78;44.64;99961.08;117052;1186;22917;-65
2022/08/02 08:37:42;;;;;;;4.60;3.90;;;;;;;33.72;45.79;99965.48;117004;1188;21858;-60
2022/08/02 08:40:10;;;;;;;4.80;4.30;;;;;;;33.57;46.03;99964.67;117044;1187;22917;-66
2022/08/02 08:42:37;;;;;;;7.10;4.50;;;;;;;33.37;46.62;99960.89;117055;1188;21865;-65
2022/08/02 08:45:05;;;;;;;5.20;4.20;;;;;;;33.42;47.43;99955.88;117005;1188;22658;-65
2022/08/02 08:47:34;;;;;;;6.80;4.70;;;;;;;33.59;45.44;99958.65;117039;1188;23569;-65
2022/08/02 08:50:16;;;;;;;6.20;4.60;;;;;;;33.77;45.85;99958.68;117057;1188;21937;-64
2022/08/02 08:52:55;;;;;;;5.00;4.30;;;;;;;34.04;46.73;99954.98;117006;1187;21857;-64
2022/08/02 08:55:23;;;;;;;6.10;4.40;;;;;;;34.29;45.80;99954.39;116936;1188;24326;-64
2022/08/02 08:57:50;;;;;;;5.90;4.60;;;;;;;34.49;44.26;99957.09;117014;1188;21858;-64
2022/08/02 09:00:17;;;;;;;5.90;5.30;;;;;;;34.31;42.07;99957.42;116795;1185;22620;-64
2022/08/02 09:02:45;;;;;;;5.30;4.20;;;;;;;33.96;42.98;99955.83;116904;1188;21881;-65
2022/08/02 09:05:13;;;;;;;9.00;4.30;;;;;;;33.65;45.08;99958.14;117199;1188;21850;-61
2022/08/02 09:07:41;;;;;;;4.90;4.40;;;;;;;33.38;45.58;99960.42;117205;1185;22967;-60
2022/08/02 09:10:31;;;;;;;5.00;4.40;;;;;;;33.28;43.84;99959.75;117204;1188;21889;-64
2022/08/02 09:13:21;;;;;;;5.50;4.80;;;;;;;33.24;44.00;99958.77;117286;1188;23630;-60
2022/08/02 09:16:08;;;;;;;7.50;4.30;;;;;;;33.42;44.05;99953.11;117031;1188;22628;-60
2022/08/02 09:18:43;;;;;;;6.40;3.80;;;;;;;33.81;44.63;99948.23;117065;1188;22277;-64
2022/08/02 09:21:13;;;;;;;4.70;3.80;;;;;;;34.27;44.07;99947.63;117192;1186;21887;-60
2022/08/02 09:23:43;;;;;;;4.30;3.60;;;;;;;34.43;42.39;99951.31;117187;1188;23107;-65
2022/08/02 09:26:12;;;;;;;6.50;3.60;;;;;;;34.28;42.16;99952.40;117235;1188;21873;-65
2022/08/02 09:28:42;;;;;;;5.20;3.80;;;;;;;34.11;42.90;99951.82;117206;1188;22822;-64
2022/08/02 09:31:14;;;;;;;5.20;3.90;;;;;;;34.20;42.14;99950.04;117119;1187;21855;-61
2022/08/02 09:33:42;;;;;;;3.90;3.50;;;;;;;34.33;41.39;99950.48;116992;1186;23538;-61
2022/08/02 09:36:13;;;;;;;4.10;3.70;;;;;;;34.10;42.17;99953.19;117235;1188;23338;-61
2022/08/02 09:38:52;;;;;;;8.50;3.60;;;;;;;33.78;42.61;99957.11;117137;1188;21854;-61
2022/08/02 09:41:21;;;;;;;4.80;3.90;;;;;;;33.58;43.67;99956.41;117171;1188;23473;-60
2022/08/02 09:43:48;;;;;;;5.20;3.90;;;;;;;33.63;43.30;99952.02;117163;1188;21891;-62
2022/08/02 09:46:35;;;;;;;6.30;4.00;;;;;;;33.72;42.50;99955.06;117076;1188;21861;-65
2022/08/02 09:49:10;;;;;;;4.60;3.30;;;;;;;33.75;42.67;99950.91;116887;1188;23554;-59
2022/08/02 09:51:56;;;;;;;3.90;3.20;;;;;;;33.95;42.40;99949.86;119189;1186;21795;-60
2022/08/02 09:54:24;;;;;;;4.00;3.50;;;;;;;34.26;42.11;99947.12;119135;1186;21820;-59
2022/08/02 09:56:53;;;;;;;4.30;3.90;;;;;;;34.78;42.73;99947.77;118132;1186;22995;-60
2022/08/02 09:59:21;;;;;;;5.10;4.20;;;;;;;34.94;40.25;99946.74;117055;1184;21868;-66
2022/08/02 10:01:49;;;;;;;5.70;4.00;;;;;;;34.87;42.51;99948.23;117155;1187;22918;-66
2022/08/02 10:04:37;;;;;;;4.50;3.70;;;;;;;34.76;41.21;99948.96;117054;1188;22921;-60
2022/08/02 10:07:20;;;;;;;7.00;4.80;;;;;;;34.53;39.35;99950.08;117106;1188;24162;-66
2022/08/02 10:09:48;;;;;;;5.20;4.10;;;;;;;34.35;40.13;99953.86;117095;1182;23458;-66
2022/08/02 10:12:15;;;;;;;6.20;4.70;;;;;;;34.02;40.06;99959.66;117127;1188;23293;-66
2022/08/02 10:14:42;;;;;;;6.30;4.90;;;;;;;33.65;41.01;99965.20;117150;1186;21860;-66
2022/08/02 10:17:09;;;;;;;6.60;4.70;;;;;;;33.30;40.14;99970.23;116866;1186;24306;-66
2022/08/02 10:19:36;;;;;;;6.10;5.50;;;;;;;32.93;41.25;99972.08;117082;1188;22888;-67
2022/08/02 10:22:23;;;;;;;6.40;4.50;;;;;;;32.59;42.12;99976.43;116971;1185;22945;-66
2022/08/02 10:24:50;;;;;;;6.80;4.90;;;;;;;32.33;42.38;99979.98;117015;1186;24197;-66
2022/08/02 10:27:18;;;;;;;6.70;5.40;;;;;;;32.19;42.61;99974.30;117073;1188;22727;-67
2022/08/02 10:29:48;;;;;;;9.00;8.10;;;;;;;32.05;41.84;99981.99;117132;1188;21977;-66
2022/08/02 10:32:29;;;;;;;7.40;6.10;;;;;;;31.90;42.52;99985.06;116984;1187;21866;-64
2022/08/02 10:35:07;;;;;;;5.60;4.80;;;;;;;31.72;43.83;99986.46;116982;1188;23576;-66
2022/08/02 10:37:56;;;;;;;13.20;5.80;;;;;;;31.50;45.09;99988.30;116970;1188;21904;-61
2022/08/02 10:40:25;;;;;;;6.50;4.50;;;;;;;31.29;45.32;99990.15;117098;1188;21848;-65
2022/08/02 10:42:54;;;;;;;8.40;4.60;;;;;;;31.15;45.88;99990.84;116989;1187;21904;-66
2022/08/02 10:45:22;;;;;;;11.40;5.40;;;;;;;31.09;46.29;99992.06;116946;1188;21865;-67
2022/08/02 10:47:59;;;;;;;6.20;4.70;;;;;;;31.03;46.12;99998.48;117193;1187;21858;-62
2022/08/02 10:51:01;;;;;;;5.10;4.60;;;;;;;30.88;46.35;100005.05;117178;1188;21956;-67
2022/08/02 10:53:32;;;;;;;5.80;4.60;;;;;;;30.73;46.10;100007.34;116919;1187;22451;-66
2022/08/02 10:56:01;;;;;;;8.90;4.80;;;;;;;30.54;46.34;100002.53;117101;1186;22607;-66
2022/08/02 10:58:31;;;;;;;7.00;4.80;;;;;;;30.43;46.45;99997.52;117211;1185;22892;-67
2022/08/02 11:01:03;;;;;;;7.20;5.30;;;;;;;30.37;46.44;99996.33;117133;1182;21867;-62
2022/08/02 11:03:31;;;;;;;6.00;5.40;;;;;;;30.35;46.58;99997.05;117137;1188;23563;-67
2022/08/02 11:06:12;;;;;;;8.20;5.30;;;;;;;30.32;46.56;99994.85;117035;1188;21861;-60
2022/08/02 11:09:32;;;;;;;9.30;5.40;;;;;;;30.30;46.87;99992.55;117002;1185;22081;-62
2022/08/02 11:12:02;;;;;;;6.30;5.00;;;;;;;30.46;47.30;99995.41;117029;1188;21879;-67
2022/08/02 11:14:31;;;;;;;6.20;5.30;;;;;;;30.85;47.55;99993.98;116952;1185;21861;-67
2022/08/02 11:17:02;;;;;;;5.70;5.10;;;;;;;31.30;47.00;99996.04;117119;1186;23704;-61
2022/08/02 11:19:29;;;;;;;5.90;4.60;;;;;;;31.72;47.10;99998.03;117076;1187;22934;-66
2022/08/02 11:22:04;;;;;;;5.70;5.20;;;;;;;32.22;46.68;99993.59;117221;1186;21856;-66
2022/08/02 11:24:34;;;;;;;6.30;5.30;;;;;;;32.69;46.16;99991.36;117098;1186;23553;-60
2022/08/02 11:27:03;;;;;;;9.60;5.50;;;;;;;33.17;45.75;99998.64;116968;1186;23553;-61
2022/08/02 11:29:34;;;;;;;6.10;5.40;;;;;;;33.32;45.24;100004.17;117139;1187;21879;-62
2022/08/02 11:32:14;;;;;;;6.90;6.20;;;;;;;33.18;44.47;100017.66;117031;1185;22085;-66
2022/08/02 11:34:41;;;;;;;7.60;5.90;;;;;;;32.84;44.63;100033.36;117041;1188;22635;-67
2022/08/02 11:37:09;;;;;;;6.80;6.10;;;;;;;32.39;44.52;100052.58;117110;1186;22350;-66
2022/08/02 11:39:36;;;;;;;13.20;7.30;;;;;;;31.84;44.66;100059.52;118754;1187;21858;-67
2022/08/02 11:42:03;;;;;;;10.00;8.50;;;;;;;30.96;46.51;100055.84;117066;1188;23553;-64
2022/08/02 11:44:40;;;;;;;12.20;6.80;;;;;;;29.84;47.59;100057.30;117130;1185;22928;-64
2022/08/02 11:47:07;;;;;;;9.20;4.60;;;;;;;28.81;48.46;100063.67;116972;1188;22648;-60
2022/08/02 11:49:35;;;;;;;8.30;6.70;;;;;;;28.05;49.17;100068.52;117192;1185;23600;-60
2022/08/02 11:52:05;;;;;;;13.90;10.00;;;;;;;27.50;50.27;100065.80;117084;1185;21920;-64
2022/08/02 11:54:35;;;;;;;12.30;11.00;;;;;;;27.16;51.21;100062.10;116937;1188;21898;-64
2022/08/02 11:57:13;;;;;;;12.50;10.60;;;;;;;26.91;51.89;100062.38;117096;1184;22908;-66
2022/08/02 11:59:47;;;;;;;12.30;11.00;;;;;;;26.80;52.92;100056.87;117047;1188;22873;-60
2022/08/02 12:02:14;;;;;;;14.20;12.90;;;;;;;26.78;54.04;100054.46;117227;1187;22967;-65
2022/08/02 12:04:41;;;;;;;14.50;13.10;;;;;;;26.86;54.45;100054.93;117104;1188;23576;-65
2022/08/02 12:07:09;;;;;;;13.90;12.60;;;;;;;27.01;55.03;100052.35;117130;1186;21854;-65
2022/08/02 12:09:36;;;;;;;14.50;13.30;;;;;;;27.14;55.39;100049.41;117041;1187;21866;-64
2022/08/02 12:12:07;;;;;;;15.40;12.70;;;;;;;27.30;55.93;100047.76;117124;1189;21940;-64
2022/08/02 12:14:41;;;;;;;15.70;14.10;;;;;;;27.60;55.79;100045.09;117084;1188;23611;-58
2022/08/02 12:19:54;;;;;;;12.20;11.10;;;;;;;28.40;57.03;100044.92;117007;1188;23549;-58
2022/08/02 12:22:25;;;;;;;8.70;7.80;;;;;;;28.65;55.56;100041.67;117108;1188;21855;-59
2022/08/02 12:24:55;;;;;;;7.70;6.50;;;;;;;28.78;55.33;100040.88;117225;1188;22062;-59
2022/08/02 12:27:36;;;;;;;8.50;6.40;;;;;;;28.93;54.25;100039.89;117143;1189;22824;-59
2022/08/02 12:30:10;;;;;;;6.50;5.80;;;;;;;29.04;53.69;100031.77;117038;1188;21827;-58
2022/08/02 12:32:37;;;;;;;6.30;5.60;;;;;;;29.16;53.36;100030.05;117182;1183;22810;-59
2022/08/02 12:35:10;;;;;;;6.80;6.20;;;;;;;29.28;53.23;100027.27;117153;1188;21858;-59
2022/08/02 12:37:47;;;;;;;7.70;6.30;;;;;;;29.44;53.29;100026.65;117211;1186;21864;-59
2022/08/02 12:40:24;;;;;;;7.20;5.70;;;;;;;29.64;52.91;100026.92;117266;1188;21891;-59
2022/08/02 12:42:54;;;;;;;6.70;6.10;;;;;;;29.80;52.31;100034.73;117248;1188;22951;-67
2022/08/02 12:45:22;;;;;;;8.10;6.00;;;;;;;30.03;52.05;100036.13;117144;1183;22912;-67
2022/08/02 12:47:50;;;;;;;5.70;5.10;;;;;;;30.22;51.56;100038.14;117150;1186;23544;-67
2022/08/02 12:50:19;;;;;;;5.30;4.80;;;;;;;30.36;50.50;100041.84;117185;1187;21889;-59
2022/08/02 12:52:48;;;;;;;5.80;4.10;;;;;;;30.51;50.29;100048.65;117172;1185;22925;-60
2022/08/02 12:55:17;;;;;;;5.70;4.20;;;;;;;30.44;50.27;100054.58;117169;1182;22645;-60
2022/08/02 12:58:00;;;;;;;5.30;3.50;;;;;;;30.25;51.28;100059.39;117151;1187;23478;-60
2022/08/02 13:00:29;;;;;;;3.30;3.00;;;;;;;29.90;50.35;100065.42;117216;1185;22499;-61
2022/08/02 13:02:57;;;;;;;3.60;3.00;;;;;;;29.53;50.74;100070.84;117187;1188;22925;-60
2022/08/02 13:05:24;;;;;;;4.40;3.20;;;;;;;29.22;50.75;100073.59;117238;1185;22531;-61
2022/08/02 13:07:51;;;;;;;4.90;3.70;;;;;;;28.97;51.14;100070.89;117143;1183;22928;-67
2022/08/02 13:10:18;;;;;;;4.70;4.20;;;;;;;28.74;51.37;100072.83;117207;1185;23452;-62
2022/08/02 13:12:46;;;;;;;4.50;4.10;;;;;;;28.53;51.41;100086.31;117142;1188;22929;-61
2022/08/02 13:15:13;;;;;;;6.40;4.80;;;;;;;28.36;51.52;100095.12;117217;1188;21858;-68
2022/08/02 13:18:00;;;;;;;5.40;4.30;;;;;;;28.26;51.83;100093.96;117104;1185;22916;-67
2022/08/02 13:20:27;;;;;;;5.00;4.50;;;;;;;28.24;52.05;100096.59;117079;1185;23015;-62
2022/08/02 13:22:54;;;;;;;5.60;4.90;;;;;;;28.23;52.38;100098.05;117115;1188;21866;-59
2022/08/02 13:25:29;;;;;;;6.00;5.10;;;;;;;28.39;52.18;100093.02;117127;1188;21862;-60
2022/08/02 13:27:56;;;;;;;6.20;5.20;;;;;;;28.56;51.86;100090.87;117100;1183;24245;-61
2022/08/02 13:30:23;;;;;;;6.80;5.70;;;;;;;28.70;51.28;100090.16;117082;1186;23809;-67
2022/08/02 13:32:50;;;;;;;6.30;5.70;;;;;;;28.88;51.44;100085.80;116877;1188;21862;-66
2022/08/02 13:35:17;;;;;;;6.80;5.60;;;;;;;29.06;50.96;100091.35;116963;1185;23557;-60
2022/08/02 13:37:44;;;;;;;6.00;5.40;;;;;;;29.18;50.89;100097.45;117119;1187;24142;-64
2022/08/02 13:40:11;;;;;;;5.90;5.30;;;;;;;29.23;50.91;100091.18;117230;1182;23638;-60
2022/08/02 13:42:47;;;;;;;6.70;5.00;;;;;;;29.16;50.58;100093.29;117136;1188;22950;-60
2022/08/02 13:45:14;;;;;;;6.00;5.30;;;;;;;29.04;50.51;100096.55;117015;1186;22928;-60
2022/08/02 13:47:42;;;;;;;6.90;5.10;;;;;;;28.89;50.02;100095.09;117090;1183;22619;-67
2022/08/02 13:50:30;;;;;;;8.10;5.30;;;;;;;28.68;50.46;100097.95;117047;1187;23657;-60
2022/08/02 13:52:57;;;;;;;6.40;5.70;;;;;;;28.52;51.16;100093.77;116937;1185;23557;-60
2022/08/02 13:55:24;;;;;;;5.90;5.20;;;;;;;28.43;51.69;100095.03;117090;1188;21925;-60
2022/08/02 13:57:51;;;;;;;6.00;5.40;;;;;;;28.35;52.27;100092.47;117034;1182;22949;-67
2022/08/02 14:00:20;;;;;;;9.80;6.20;;;;;;;28.24;52.39;100089.49;117161;1188;21947;-66
2022/08/02 14:03:03;;;;;;;6.90;5.20;;;;;;;28.09;52.61;100081.80;116942;1188;21864;-60
2022/08/02 14:05:30;;;;;;;7.00;5.20;;;;;;;27.95;52.83;100075.83;117033;1187;23688;-67
2022/08/02 14:08:15;;;;;;;6.30;5.10;;;;;;;27.88;52.95;100070.50;117091;1188;21899;-66
2022/08/02 14:10:44;;;;;;;5.90;5.30;;;;;;;27.89;52.90;100066.80;117024;1188;21874;-68
2022/08/02 14:13:11;;;;;;;6.10;5.50;;;;;;;27.97;53.10;100067.22;117029;1189;22844;-68
2022/08/02 14:15:38;;;;;;;5.80;5.10;;;;;;;28.09;53.06;100063.23;116997;1187;23631;-67
2022/08/02 14:18:05;;;;;;;7.00;5.00;;;;;;;28.16;52.77;100061.20;116955;1185;23576;-66
2022/08/02 14:20:32;;;;;;;6.30;5.00;;;;;;;28.11;52.77;100058.38;116936;1187;22709;-67
2022/08/02 14:22:59;;;;;;;5.20;4.10;;;;;;;28.00;52.35;100055.91;116915;1185;21866;-66
2022/08/02 14:25:26;;;;;;;4.80;3.90;;;;;;;27.86;52.15;100058.83;117032;1187;21866;-67
2022/08/02 14:27:53;;;;;;;5.40;4.30;;;;;;;27.74;51.86;100057.69;116900;1187;22926;-67
2022/08/02 14:30:22;;;;;;;4.80;4.40;;;;;;;27.64;51.69;100064.69;116999;1184;22139;-67
2022/08/02 14:32:49;;;;;;;4.60;4.10;;;;;;;27.54;51.80;100063.60;116969;1188;21909;-69
2022/08/02 14:35:17;;;;;;;4.80;4.00;;;;;;;27.44;52.02;100067.92;116962;1188;23079;-67
2022/08/02 14:37:44;;;;;;;7.60;4.00;;;;;;;27.39;52.27;100067.48;116962;1183;23711;-67
2022/08/02 14:40:11;;;;;;;7.00;4.50;;;;;;;27.38;52.25;100066.98;117061;1185;23553;-65
2022/08/02 14:42:59;;;;;;;5.30;4.70;;;;;;;27.31;52.15;100063.60;117073;1186;22658;-66
2022/08/02 14:45:28;;;;;;;5.50;4.80;;;;;;;27.26;52.34;100062.61;117135;1185;23557;-60
2022/08/02 14:48:11;;;;;;;7.10;6.40;;;;;;;27.26;52.04;100058.00;117015;1185;23474;-59
2022/08/02 14:50:38;;;;;;;7.20;6.50;;;;;;;27.31;51.93;100053.41;117004;1185;22814;-60
2022/08/02 14:53:05;;;;;;;7.50;6.80;;;;;;;27.44;51.94;100053.14;117053;1186;22926;-59
2022/08/02 14:55:38;;;;;;;8.40;7.00;;;;;;;27.66;51.86;100054.67;117133;1188;23554;-67
2022/08/02 14:58:05;;;;;;;7.50;6.80;;;;;;;27.89;51.27;100055.07;117151;1188;23553;-66
2022/08/02 15:00:32;;;;;;;11.60;7.50;;;;;;;28.10;50.95;100057.79;117124;1185;21968;-66
2022/08/02 15:03:06;;;;;;;9.20;6.80;;;;;;;28.26;50.52;100056.86;117045;1188;22310;-59
2022/08/02 15:05:34;;;;;;;7.40;6.70;;;;;;;28.36;50.12;100060.86;117258;1187;21861;-61
2022/08/02 15:08:01;;;;;;;7.30;6.60;;;;;;;28.46;50.52;100063.86;116994;1188;22622;-60
2022/08/02 15:10:28;;;;;;;8.90;6.90;;;;;;;28.57;50.70;100064.26;117019;1188;23753;-60
2022/08/02 15:12:56;;;;;;;7.40;6.40;;;;;;;28.65;50.28;100067.02;117087;1186;23602;-67
2022/08/02 15:15:24;;;;;;;9.70;7.50;;;;;;;28.67;50.04;100064.48;116956;1183;21864;-60
2022/08/02 15:17:52;;;;;;;8.90;6.40;;;;;;;28.64;49.96;100074.88;117060;1188;23454;-60
2022/08/02 15:20:19;;;;;;;9.30;7.10;;;;;;;28.62;50.45;100075.39;117074;1185;23582;-67
2022/08/02 15:22:51;;;;;;;8.60;7.40;;;;;;;28.68;50.21;100079.33;117155;1187;22972;-67
2022/08/02 15:25:20;;;;;;;7.20;6.50;;;;;;;28.78;50.26;100083.13;117040;1187;21863;-67
2022/08/02 15:27:47;;;;;;;8.60;6.20;;;;;;;28.84;49.97;100081.11;117050;1188;23305;-66
2022/08/02 15:30:14;;;;;;;6.70;6.00;;;;;;;28.86;49.71;100084.40;117023;1185;23576;-61
2022/08/02 15:32:41;;;;;;;8.40;6.90;;;;;;;28.76;49.51;100087.31;117098;1189;21873;-61
2022/08/02 15:35:19;;;;;;;7.80;7.00;;;;;;;28.51;49.42;100091.02;116971;1187;22058;-67